Time;durP1;ratioP1;P1;durP2;ratioP2;P2;SDS_P1;SDS_P2;PMS_P1;PMS_P2;Temp;Humidity;BMP_temperature;BMP_pressure;BME280_temperature;BME280_humidity;BME280_pressure;Samples;Min_cycle;Max_cycle;Signal;HPM_P1;HPM_P2
2023/12/28 00:01:20;;;;;;;13.10;7.47;;;6.30;99.90;;;;;;5033708;28;20036;-49
2023/12/28 00:03:45;;;;;;;11.63;7.80;;;6.30;99.90;;;;;;5032934;28;20354;-47
2023/12/28 00:06:11;;;;;;;10.30;6.78;;;6.20;99.90;;;;;;5033391;28;20080;-46
2023/12/28 00:08:36;;;;;;;12.90;7.15;;;6.10;99.90;;;;;;5033037;28;20032;-46
2023/12/28 00:11:02;;;;;;;11.63;6.43;;;6.10;99.90;;;;;;5032886;28;20037;-45
2023/12/28 00:13:28;;;;;;;14.02;6.75;;;6.10;99.90;;;;;;5032747;28;20026;-47
2023/12/28 00:15:53;;;;;;;7.85;5.65;;;6.20;99.90;;;;;;5033057;28;20460;-45
2023/12/28 00:18:19;;;;;;;8.75;5.90;;;6.30;99.90;;;;;;5032939;28;20029;-47
2023/12/28 00:20:44;;;;;;;8.55;5.78;;;6.30;99.90;;;;;;5033351;28;20140;-45
2023/12/28 00:23:10;;;;;;;9.60;6.18;;;6.30;99.90;;;;;;5032952;28;20029;-46
2023/12/28 00:25:35;;;;;;;10.88;6.00;;;6.40;99.90;;;;;;5048309;28;20033;-48
2023/12/28 00:28:01;;;;;;;10.60;5.80;;;6.50;99.90;;;;;;5032848;28;20022;-46
2023/12/28 00:30:26;;;;;;;12.57;5.35;;;6.50;99.90;;;;;;5032838;28;20033;-46
2023/12/28 00:32:52;;;;;;;13.25;5.75;;;6.50;99.90;;;;;;5032321;28;20322;-44
2023/12/28 00:35:19;;;;;;;7.80;5.32;;;6.50;99.90;;;;;;5032641;28;20053;-46
2023/12/28 00:37:45;;;;;;;8.93;5.40;;;6.50;99.90;;;;;;5032783;28;20420;-47
2023/12/28 00:40:10;;;;;;;10.25;5.85;;;6.50;99.90;;;;;;5031830;28;20041;-46
2023/12/28 00:42:36;;;;;;;9.30;5.65;;;6.50;99.90;;;;;;5031832;28;20037;-48
2023/12/28 00:45:02;;;;;;;19.05;7.13;;;6.60;99.90;;;;;;5032340;28;20030;-46
2023/12/28 00:47:28;;;;;;;14.63;7.18;;;6.60;99.90;;;;;;5032415;28;20056;-50
2023/12/28 00:49:53;;;;;;;7.63;5.63;;;6.50;99.90;;;;;;5014617;28;20794;-49
2023/12/28 00:52:19;;;;;;;7.18;5.13;;;6.60;99.90;;;;;;5032086;28;20037;-47
2023/12/28 00:54:44;;;;;;;6.90;5.55;;;6.60;99.90;;;;;;5014651;28;20021;-46
2023/12/28 00:57:10;;;;;;;8.70;5.35;;;6.70;99.90;;;;;;5014499;28;20056;-46
2023/12/28 00:59:36;;;;;;;10.75;5.05;;;6.80;99.90;;;;;;5032029;28;20247;-47
2023/12/28 01:02:01;;;;;;;11.57;4.50;;;6.80;99.90;;;;;;5031767;28;20489;-46
2023/12/28 01:04:27;;;;;;;11.15;4.47;;;6.80;99.90;;;;;;5032003;28;20076;-46
2023/12/28 01:06:52;;;;;;;10.13;4.85;;;6.90;99.90;;;;;;5032110;28;20037;-48
2023/12/28 01:09:18;;;;;;;6.85;4.35;;;7.00;99.90;;;;;;5032308;28;20033;-49
2023/12/28 01:11:44;;;;;;;6.97;4.50;;;7.00;99.90;;;;;;5031533;28;20108;-46
2023/12/28 01:14:09;;;;;;;5.95;4.57;;;7.00;99.90;;;;;;5031977;28;20029;-46
2023/12/28 01:16:35;;;;;;;5.82;4.72;;;7.10;99.90;;;;;;5031994;28;20041;-46
2023/12/28 01:19:01;;;;;;;7.45;5.10;;;7.10;99.90;;;;;;5031728;28;20021;-46
2023/12/28 01:21:28;;;;;;;5.57;4.75;;;7.20;99.90;;;;;;5031711;28;20037;-47
2023/12/28 01:23:54;;;;;;;8.35;5.95;;;7.20;99.90;;;;;;5014095;28;20018;-47
2023/12/28 01:26:19;;;;;;;9.90;4.90;;;7.30;99.90;;;;;;5031627;28;20100;-47
2023/12/28 01:28:45;;;;;;;7.10;4.88;;;7.30;99.90;;;;;;5031782;28;20477;-49
2023/12/28 01:31:11;;;;;;;6.68;4.85;;;7.40;99.90;;;;;;5013892;28;20017;-49
2023/12/28 01:33:36;;;;;;;9.88;4.40;;;7.50;99.90;;;;;;5031354;28;20468;-45
2023/12/28 01:36:02;;;;;;;7.18;4.60;;;7.50;99.90;;;;;;5031542;28;20026;-47
2023/12/28 01:38:28;;;;;;;8.95;4.97;;;7.60;99.90;;;;;;5031657;28;20064;-46
2023/12/28 01:40:53;;;;;;;8.55;4.60;;;7.60;99.90;;;;;;5052020;23;20574;-44
2023/12/28 01:43:19;;;;;;;5.68;4.20;;;7.70;99.90;;;;;;5030910;28;20025;-45
2023/12/28 01:45:45;;;;;;;7.90;4.55;;;7.70;99.90;;;;;;5031460;28;20030;-44
2023/12/28 01:48:13;;;;;;;9.18;4.95;;;7.70;99.90;;;;;;5031388;28;20393;-44
2023/12/28 01:50:39;;;;;;;6.40;4.43;;;7.80;99.90;;;;;;5032933;28;20029;-44
2023/12/28 01:53:05;;;;;;;7.25;4.47;;;7.80;99.90;;;;;;5035097;28;20041;-43
2023/12/28 01:55:31;;;;;;;7.90;4.53;;;7.90;99.90;;;;;;5017678;28;20025;-43
2023/12/28 01:57:58;;;;;;;7.85;4.57;;;7.90;99.90;;;;;;5035637;28;20048;-43
2023/12/28 02:00:24;;;;;;;8.02;5.20;;;7.90;99.90;;;;;;5017569;28;20029;-42
2023/12/28 02:02:50;;;;;;;9.02;5.13;;;8.00;99.90;;;;;;5017192;28;20033;-43
2023/12/28 02:05:16;;;;;;;7.72;4.68;;;8.10;99.90;;;;;;5017570;28;20040;-47
2023/12/28 02:07:42;;;;;;;7.32;4.70;;;8.10;99.90;;;;;;5035252;28;20025;-46
2023/12/28 02:10:07;;;;;;;9.95;5.38;;;8.10;99.90;;;;;;5017371;28;20068;-45
2023/12/28 02:12:33;;;;;;;6.60;3.92;;;8.10;99.90;;;;;;5034887;28;20554;-44
2023/12/28 02:14:59;;;;;;;10.32;4.95;;;8.10;99.90;;;;;;5034989;28;20540;-44
2023/12/28 02:17:31;;;;;;;7.70;5.38;;;8.00;99.90;;;;;;5034860;28;20108;-43
2023/12/28 02:19:58;;;;;;;7.00;5.03;;;8.00;99.90;;;;;;5034928;28;20028;-46
2023/12/28 02:22:26;;;;;;;8.25;4.78;;;8.10;99.90;;;;;;5034891;28;20025;-44
2023/12/28 02:25:13;;;;;;;7.80;4.53;;;8.10;99.90;;;;;;5034968;28;20022;-46
2023/12/28 02:27:46;;;;;;;7.60;4.65;;;8.00;99.90;;;;;;5034844;28;20029;-44
2023/12/28 02:30:13;;;;;;;9.73;5.15;;;8.10;99.90;;;;;;5034636;28;20116;-43
2023/12/28 02:32:50;;;;;;;6.97;4.80;;;8.10;99.90;;;;;;5034425;28;20485;-47
2023/12/28 02:35:20;;;;;;;6.07;4.22;;;8.10;99.90;;;;;;5034721;28;20113;-44
2023/12/28 02:37:50;;;;;;;6.35;4.63;;;8.20;99.90;;;;;;5017127;28;20017;-44
2023/12/28 02:40:17;;;;;;;6.63;4.45;;;8.20;99.90;;;;;;5034512;28;20083;-42
2023/12/28 02:42:43;;;;;;;7.97;4.57;;;8.30;99.90;;;;;;5034370;28;20059;-45
2023/12/28 02:45:09;;;;;;;6.65;4.47;;;8.30;99.90;;;;;;5034498;28;20053;-43
2023/12/28 02:47:34;;;;;;;8.23;4.97;;;8.30;99.90;;;;;;5034973;28;20190;-43
2023/12/28 02:50:00;;;;;;;7.95;4.60;;;8.40;99.90;;;;;;5035743;28;20116;-45
2023/12/28 02:52:26;;;;;;;5.60;4.35;;;8.40;99.90;;;;;;5035318;28;20030;-44
2023/12/28 02:54:51;;;;;;;7.60;4.72;;;8.30;99.90;;;;;;5035791;28;20075;-43
2023/12/28 02:57:18;;;;;;;5.32;4.85;;;8.40;99.90;;;;;;5017644;28;20025;-44
2023/12/28 02:59:45;;;;;;;10.27;4.60;;;8.50;99.90;;;;;;5034622;28;20396;-43
2023/12/28 03:02:10;;;;;;;5.75;4.40;;;8.50;99.90;;;;;;5033139;28;20033;-44
2023/12/28 03:04:36;;;;;;;5.68;4.07;;;8.50;99.90;;;;;;5034180;28;20037;-48
2023/12/28 03:07:01;;;;;;;5.72;4.28;;;8.50;99.90;;;;;;5034129;28;20473;-45
2023/12/28 03:09:27;;;;;;;7.75;4.28;;;8.60;99.90;;;;;;5034031;28;20029;-44
2023/12/28 03:11:52;;;;;;;7.68;4.68;;;8.60;99.90;;;;;;5033499;28;20041;-44
2023/12/28 03:14:18;;;;;;;4.35;3.95;;;8.50;99.90;;;;;;5033977;28;20045;-43
2023/12/28 03:16:43;;;;;;;4.93;3.90;;;8.50;99.90;;;;;;5034102;28;20025;-44
2023/12/28 03:19:09;;;;;;;4.80;3.33;;;8.50;99.90;;;;;;5033891;28;20021;-43
2023/12/28 03:21:40;;;;;;;4.47;3.72;;;8.50;99.90;;;;;;5033642;28;20037;-42
2023/12/28 03:24:05;;;;;;;6.25;3.95;;;8.50;99.90;;;;;;5033819;28;20105;-43
2023/12/28 03:26:31;;;;;;;5.30;3.85;;;8.60;99.90;;;;;;5033873;28;20109;-44
2023/12/28 03:28:56;;;;;;;6.82;3.58;;;8.60;99.90;;;;;;5033803;28;20469;-42
2023/12/28 03:31:23;;;;;;;5.38;3.55;;;8.60;99.90;;;;;;5015936;28;20024;-44
2023/12/28 03:33:48;;;;;;;4.60;3.83;;;8.80;99.90;;;;;;5033567;28;20026;-44
2023/12/28 03:36:20;;;;;;;3.33;3.03;;;8.80;99.90;;;;;;5015767;28;20388;-44
2023/12/28 03:38:46;;;;;;;5.35;2.97;;;9.00;99.90;;;;;;5015751;28;20489;-43
2023/12/28 03:41:18;;;;;;;4.30;3.47;;;9.10;99.90;;;;;;5015543;28;20033;-46
2023/12/28 03:43:45;;;;;;;4.05;3.13;;;9.10;99.90;;;;;;5033506;28;20063;-43
2023/12/28 03:46:11;;;;;;;4.78;3.13;;;9.20;99.90;;;;;;5033515;28;20036;-41
2023/12/28 03:48:37;;;;;;;3.60;3.17;;;9.20;99.90;;;;;;5033525;28;20398;-44
2023/12/28 03:51:03;;;;;;;5.57;3.25;;;9.20;99.90;;;;;;5033334;28;20069;-45
2023/12/28 03:53:31;;;;;;;4.68;3.30;;;9.30;99.90;;;;;;5015309;28;20045;-43
2023/12/28 03:55:57;;;;;;;3.58;3.00;;;9.30;99.90;;;;;;5033310;28;20051;-42
2023/12/28 03:58:23;;;;;;;4.03;3.17;;;9.30;99.90;;;;;;5033242;28;20421;-42
2023/12/28 04:00:48;;;;;;;5.32;2.88;;;9.30;99.90;;;;;;5033015;28;20036;-45
2023/12/28 04:03:14;;;;;;;5.30;3.22;;;9.30;99.90;;;;;;5032798;28;20120;-43
2023/12/28 04:05:39;;;;;;;6.07;3.03;;;9.40;99.90;;;;;;5015290;28;20029;-43
2023/12/28 04:08:06;;;;;;;4.70;3.00;;;9.30;99.90;;;;;;5033068;28;20073;-43
2023/12/28 04:10:33;;;;;;;3.85;2.95;;;9.30;99.90;;;;;;5033000;28;20101;-47
2023/12/28 04:12:59;;;;;;;4.10;3.08;;;9.30;99.90;;;;;;5032396;28;20044;-46
2023/12/28 04:15:26;;;;;;;4.85;2.95;;;9.30;99.90;;;;;;5032730;28;20053;-44
2023/12/28 04:17:51;;;;;;;3.40;2.80;;;9.30;99.90;;;;;;5015009;28;20079;-40
2023/12/28 04:20:17;;;;;;;4.03;2.72;;;9.30;99.90;;;;;;5014886;28;20536;-47
2023/12/28 04:22:43;;;;;;;6.05;3.55;;;9.30;99.90;;;;;;5032529;28;20104;-46
2023/12/28 04:25:11;;;;;;;5.30;2.60;;;9.40;99.90;;;;;;5015176;28;20040;-44
2023/12/28 04:27:38;;;;;;;3.75;2.83;;;9.40;99.90;;;;;;5032580;28;20090;-46
2023/12/28 04:30:05;;;;;;;2.80;2.53;;;9.40;99.90;;;;;;5014850;28;20033;-46
2023/12/28 04:32:31;;;;;;;3.53;2.72;;;9.40;99.90;;;;;;5032135;28;20022;-46
2023/12/28 04:34:57;;;;;;;3.03;2.50;;;9.40;99.90;;;;;;5032378;28;20044;-46
2023/12/28 04:37:22;;;;;;;3.85;2.83;;;9.40;99.90;;;;;;5032338;28;20030;-44
2023/12/28 04:39:48;;;;;;;3.60;3.30;;;9.40;99.90;;;;;;5014535;28;20021;-43
2023/12/28 04:42:13;;;;;;;4.25;2.90;;;9.50;99.90;;;;;;5031727;28;20029;-47
2023/12/28 04:44:39;;;;;;;4.80;2.50;;;9.40;99.90;;;;;;5014499;28;20032;-45
2023/12/28 04:47:05;;;;;;;2.95;2.65;;;9.50;99.90;;;;;;5032213;28;20026;-43
2023/12/28 04:49:31;;;;;;;5.57;2.58;;;9.50;99.90;;;;;;5014413;28;20028;-46
2023/12/28 04:51:56;;;;;;;4.32;2.40;;;9.50;99.90;;;;;;5013981;28;20029;-39
2023/12/28 04:54:22;;;;;;;4.03;2.90;;;9.50;99.90;;;;;;5014303;28;20014;-47
2023/12/28 04:56:48;;;;;;;5.68;2.53;;;9.60;99.90;;;;;;5031968;28;20053;-47
2023/12/28 04:59:13;;;;;;;3.80;3.00;;;9.50;99.90;;;;;;5014125;28;20031;-43
2023/12/28 05:01:45;;;;;;;3.63;2.60;;;9.50;99.90;;;;;;5013941;28;20052;-41
2023/12/28 05:04:11;;;;;;;3.47;2.85;;;9.40;99.90;;;;;;5031846;28;20025;-43
2023/12/28 05:06:37;;;;;;;3.65;2.90;;;9.40;99.90;;;;;;5032022;28;20032;-45
2023/12/28 05:09:04;;;;;;;6.38;3.72;;;9.40;99.90;;;;;;5031871;28;20427;-45
2023/12/28 05:11:30;;;;;;;4.45;3.03;;;9.50;99.90;;;;;;5031559;28;20020;-44
2023/12/28 05:13:55;;;;;;;5.35;3.05;;;9.40;99.90;;;;;;5013976;28;20029;-43
2023/12/28 05:16:21;;;;;;;4.80;3.03;;;9.40;99.90;;;;;;5034393;28;20029;-45
2023/12/28 05:18:47;;;;;;;3.05;2.42;;;9.40;99.90;;;;;;5034757;28;20057;-43
2023/12/28 05:21:13;;;;;;;4.22;3.17;;;9.40;99.90;;;;;;5034742;28;20044;-41
2023/12/28 05:23:39;;;;;;;4.18;2.80;;;9.40;99.90;;;;;;5033973;28;20100;-46
2023/12/28 05:26:04;;;;;;;6.07;2.83;;;9.40;99.90;;;;;;5015822;28;20441;-44
2023/12/28 05:28:30;;;;;;;4.03;2.97;;;9.40;99.90;;;;;;5031664;28;20041;-44
2023/12/28 05:30:56;;;;;;;3.45;2.63;;;9.40;99.90;;;;;;5031447;28;20412;-43
2023/12/28 05:33:22;;;;;;;4.65;3.40;;;9.40;99.90;;;;;;5031419;28;20177;-48
2023/12/28 05:35:48;;;;;;;4.78;2.63;;;9.40;99.90;;;;;;5031990;28;20488;-44
2023/12/28 05:38:13;;;;;;;2.65;2.45;;;9.40;99.90;;;;;;5031480;28;20028;-47
2023/12/28 05:40:39;;;;;;;4.15;2.65;;;9.30;99.90;;;;;;5030860;28;20033;-41
2023/12/28 05:43:05;;;;;;;5.32;2.80;;;9.30;99.90;;;;;;5013472;28;20022;-45
2023/12/28 05:45:30;;;;;;;3.05;2.75;;;9.40;99.90;;;;;;5031394;28;20083;-43
2023/12/28 05:47:56;;;;;;;2.45;2.25;;;9.40;99.90;;;;;;5031395;28;20105;-44
2023/12/28 05:50:22;;;;;;;4.95;3.20;;;9.40;99.90;;;;;;5031199;28;20034;-46
2023/12/28 05:52:47;;;;;;;4.30;2.53;;;9.40;99.90;;;;;;5031070;28;20511;-46
2023/12/28 05:55:13;;;;;;;2.78;2.58;;;9.40;99.90;;;;;;5013516;28;20121;-44
2023/12/28 05:57:38;;;;;;;2.67;2.45;;;9.40;99.90;;;;;;5013511;28;20026;-44
2023/12/28 06:00:06;;;;;;;3.95;2.80;;;9.40;99.90;;;;;;5031185;28;20025;-46
2023/12/28 06:02:31;;;;;;;3.33;2.40;;;9.40;99.90;;;;;;5031047;28;20025;-44
2023/12/28 06:04:57;;;;;;;2.90;2.60;;;9.40;99.90;;;;;;5031174;28;20496;-44
2023/12/28 06:07:22;;;;;;;2.58;2.38;;;9.40;99.90;;;;;;5031108;28;20029;-48
2023/12/28 06:09:48;;;;;;;2.42;2.13;;;9.40;99.90;;;;;;5031310;28;20040;-44
2023/12/28 06:12:14;;;;;;;3.05;2.58;;;9.50;99.90;;;;;;5030823;28;20037;-45
2023/12/28 06:14:40;;;;;;;2.90;2.53;;;9.50;99.90;;;;;;5031144;28;20366;-44
2023/12/28 06:17:05;;;;;;;2.70;2.50;;;9.50;99.90;;;;;;5031059;28;20032;-44
2023/12/28 06:19:31;;;;;;;2.63;2.00;;;9.40;99.90;;;;;;5031082;28;20563;-49
2023/12/28 06:21:58;;;;;;;3.38;2.63;;;9.40;99.90;;;;;;5030892;28;20505;-47
2023/12/28 06:24:23;;;;;;;2.53;2.33;;;9.40;99.90;;;;;;5031099;28;20064;-47
2023/12/28 06:26:49;;;;;;;2.97;2.50;;;9.30;99.90;;;;;;5031020;28;20489;-50
2023/12/28 06:29:15;;;;;;;2.58;2.28;;;9.30;99.90;;;;;;5031026;28;20060;-46
2023/12/28 06:31:41;;;;;;;3.55;2.47;;;9.30;99.90;;;;;;5031322;28;20495;-43
2023/12/28 06:34:06;;;;;;;2.38;2.17;;;9.30;99.90;;;;;;5030994;28;20029;-48
2023/12/28 06:36:32;;;;;;;2.33;2.00;;;9.30;99.90;;;;;;5031158;28;20544;-44
2023/12/28 06:38:58;;;;;;;2.10;2.00;;;9.30;99.90;;;;;;5034687;28;20518;-44
2023/12/28 06:41:25;;;;;;;3.22;2.20;;;9.30;99.90;;;;;;5016338;28;20157;-47
2023/12/28 06:43:51;;;;;;;3.03;2.00;;;9.30;99.90;;;;;;5016581;28;20091;-43
2023/12/28 06:46:17;;;;;;;4.55;2.25;;;9.30;99.90;;;;;;5034416;28;20481;-43
2023/12/28 06:48:43;;;;;;;5.80;2.47;;;9.30;99.90;;;;;;5034491;28;20088;-44
2023/12/28 06:51:09;;;;;;;2.55;2.25;;;9.30;99.90;;;;;;5034212;28;20030;-44
2023/12/28 06:53:35;;;;;;;2.40;2.20;;;9.30;99.90;;;;;;5034174;28;20072;-43
2023/12/28 06:56:01;;;;;;;3.80;2.70;;;9.30;99.90;;;;;;5034298;28;20071;-46
2023/12/28 06:58:26;;;;;;;2.85;2.25;;;9.30;99.90;;;;;;5034281;28;20029;-45
2023/12/28 07:00:52;;;;;;;3.83;2.53;;;9.20;99.90;;;;;;5034101;28;20511;-42
2023/12/28 07:03:17;;;;;;;2.60;2.25;;;9.30;99.90;;;;;;5016214;28;20021;-46
2023/12/28 07:05:43;;;;;;;3.63;2.30;;;9.30;99.90;;;;;;5034221;28;20076;-44
2023/12/28 07:08:08;;;;;;;3.42;2.25;;;9.30;99.90;;;;;;5034147;28;20026;-42
2023/12/28 07:10:34;;;;;;;3.47;2.70;;;9.30;99.90;;;;;;5034089;28;20283;-44
2023/12/28 07:12:59;;;;;;;4.63;2.45;;;9.30;99.90;;;;;;5033841;28;20386;-45
2023/12/28 07:15:25;;;;;;;3.17;2.28;;;9.30;99.90;;;;;;5033995;28;20028;-49
2023/12/28 07:17:50;;;;;;;3.65;2.78;;;9.30;99.90;;;;;;5033960;28;20017;-46
2023/12/28 07:20:16;;;;;;;5.75;2.42;;;9.40;99.90;;;;;;5016027;28;20389;-43
2023/12/28 07:22:41;;;;;;;3.38;2.60;;;9.40;99.90;;;;;;5033666;28;20397;-43
2023/12/28 07:25:07;;;;;;;4.32;2.55;;;9.40;99.90;;;;;;5033744;28;20033;-48
2023/12/28 07:27:34;;;;;;;2.78;2.50;;;9.50;99.90;;;;;;5016081;28;20589;-45
2023/12/28 07:30:00;;;;;;;3.90;2.70;;;9.50;99.90;;;;;;5033569;28;20029;-44
2023/12/28 07:32:28;;;;;;;2.78;2.55;;;9.50;99.90;;;;;;5033487;28;20457;-43
2023/12/28 07:34:53;;;;;;;4.78;2.75;;;9.50;99.90;;;;;;5033647;28;20036;-45
2023/12/28 07:37:19;;;;;;;4.57;2.38;;;9.60;99.90;;;;;;5033608;28;20483;-43
2023/12/28 07:39:44;;;;;;;6.18;2.35;;;9.60;99.90;;;;;;5033584;28;20080;-43
2023/12/28 07:42:10;;;;;;;4.90;2.30;;;9.60;99.90;;;;;;5015388;28;20037;-44
2023/12/28 07:44:35;;;;;;;4.32;2.08;;;9.70;99.90;;;;;;5033516;28;20068;-43
2023/12/28 07:47:01;;;;;;;2.47;2.10;;;9.70;99.90;;;;;;5033562;28;20144;-43
2023/12/28 07:49:27;;;;;;;2.70;2.50;;;9.70;99.90;;;;;;5033043;28;20567;-43
2023/12/28 07:51:52;;;;;;;2.45;2.10;;;9.70;99.90;;;;;;5032972;28;20026;-41
2023/12/28 07:54:18;;;;;;;4.18;2.30;;;;;;;;;;5033244;28;20503;-43
2023/12/28 07:56:44;;;;;;;3.85;2.15;;;9.70;99.90;;;;;;5033349;28;20500;-42
2023/12/28 07:59:09;;;;;;;4.38;2.58;;;9.70;99.90;;;;;;5033449;28;20029;-43
2023/12/28 08:01:35;;;;;;;2.25;2.03;;;9.80;99.90;;;;;;5032958;28;20396;-40
2023/12/28 08:04:01;;;;;;;3.30;2.53;;;9.70;99.90;;;;;;5033047;28;20476;-43
2023/12/28 08:06:29;;;;;;;7.57;2.50;;;9.70;99.90;;;;;;5033098;28;20416;-45
2023/12/28 08:08:54;;;;;;;4.32;2.70;;;9.70;99.90;;;;;;5033444;28;20071;-43
2023/12/28 08:11:20;;;;;;;3.05;2.30;;;9.60;99.90;;;;;;5032681;28;20018;-43
2023/12/28 08:13:46;;;;;;;2.38;2.17;;;9.70;99.90;;;;;;5032850;28;20492;-44
2023/12/28 08:16:12;;;;;;;5.13;2.40;;;9.70;99.90;;;;;;5032849;28;20118;-43
2023/12/28 08:18:37;;;;;;;4.75;2.72;;;9.70;99.90;;;;;;5032809;28;20034;-43
2023/12/28 08:21:03;;;;;;;3.60;2.42;;;9.70;99.90;;;;;;5032723;28;20017;-44
2023/12/28 08:23:28;;;;;;;3.42;2.60;;;9.70;99.90;;;;;;5032566;28;20029;-43
2023/12/28 08:25:54;;;;;;;2.88;2.15;;;9.70;99.90;;;;;;5032653;28;20436;-43
2023/12/28 08:28:20;;;;;;;2.75;2.42;;;9.70;99.90;;;;;;5032566;28;20032;-45
2023/12/28 08:30:45;;;;;;;5.05;2.65;;;9.70;99.90;;;;;;5032549;28;20465;-44
2023/12/28 08:33:11;;;;;;;5.07;2.55;;;9.70;99.90;;;;;;5015044;28;20112;-47
2023/12/28 08:35:36;;;;;;;4.35;2.55;;;9.70;99.90;;;;;;5032625;28;20128;-44
2023/12/28 08:38:02;;;;;;;3.00;2.65;;;9.70;99.90;;;;;;5018546;28;20489;-45
2023/12/28 08:40:27;;;;;;;4.05;2.65;;;9.70;99.90;;;;;;5014711;28;20477;-44
2023/12/28 08:42:53;;;;;;;4.63;2.58;;;9.70;99.90;;;;;;5033227;28;20044;-43
2023/12/28 08:45:18;;;;;;;3.33;2.50;;;9.70;99.90;;;;;;5033178;28;20029;-45
2023/12/28 08:47:43;;;;;;;4.88;2.75;;;9.70;99.90;;;;;;5033262;28;20041;-43
2023/12/28 08:50:09;;;;;;;4.97;2.63;;;9.70;99.90;;;;;;5014328;28;20515;-44
2023/12/28 08:52:35;;;;;;;3.85;2.53;;;9.70;99.90;;;;;;5014003;28;20034;-46
2023/12/28 08:55:01;;;;;;;6.35;2.40;;;9.80;99.90;;;;;;5014594;28;20108;-47
2023/12/28 08:57:26;;;;;;;4.78;2.95;;;9.80;99.90;;;;;;5032358;28;20080;-47
2023/12/28 08:59:52;;;;;;;6.15;2.85;;;9.80;99.90;;;;;;5031153;28;20213;-48
2023/12/28 09:02:17;;;;;;;3.00;2.65;;;9.80;99.90;;;;;;5031920;28;20061;-47
2023/12/28 09:04:43;;;;;;;4.00;2.80;;;9.80;99.90;;;;;;5031939;28;20116;-51
2023/12/28 09:07:09;;;;;;;4.97;3.22;;;9.80;99.90;;;;;;5031614;28;20029;-49
2023/12/28 09:09:35;;;;;;;4.95;2.58;;;9.80;99.90;;;;;;5031451;28;20029;-48
2023/12/28 09:12:01;;;;;;;2.90;2.58;;;9.80;99.90;;;;;;5031344;28;20026;-49
2023/12/28 09:14:27;;;;;;;2.97;2.35;;;9.80;99.90;;;;;;5031063;28;20106;-49
2023/12/28 09:16:52;;;;;;;4.15;2.65;;;9.90;99.90;;;;;;5013245;28;20492;-52
2023/12/28 09:19:18;;;;;;;6.40;2.70;;;9.90;99.90;;;;;;5030559;28;20025;-50
2023/12/28 09:21:43;;;;;;;5.30;2.80;;;9.90;99.90;;;;;;5031170;28;20021;-50
2023/12/28 09:24:09;;;;;;;6.13;2.63;;;10.00;99.90;;;;;;5031469;28;20025;-47
2023/12/28 09:26:34;;;;;;;5.45;2.58;;;10.00;99.90;;;;;;5031523;28;20026;-50
2023/12/28 09:29:00;;;;;;;4.90;2.67;;;10.10;99.90;;;;;;5031622;28;20061;-53
2023/12/28 09:31:25;;;;;;;6.75;3.78;;;10.20;99.90;;;;;;5031527;28;20030;-49
2023/12/28 09:33:52;;;;;;;2.95;2.38;;;10.40;99.90;;;;;;5031009;28;20160;-48
2023/12/28 09:36:18;;;;;;;8.05;3.53;;;10.50;99.90;;;;;;5031431;28;20508;-49
2023/12/28 09:38:44;;;;;;;3.08;2.78;;;10.70;99.90;;;;;;5031338;28;20022;-51
2023/12/28 09:41:14;;;;;;;5.78;2.60;;;10.80;99.90;;;;;;5031095;28;20095;-50
2023/12/28 09:43:54;;;;;;;3.08;2.35;;;11.00;99.90;;;;;;5031170;28;20107;-57
2023/12/28 09:46:20;;;;;;;2.65;2.45;;;11.30;99.90;;;;;;5030970;28;20029;-55
2023/12/28 09:48:45;;;;;;;4.50;2.40;;;11.60;99.90;;;;;;5031128;28;20032;-57
2023/12/28 09:51:11;;;;;;;4.68;1.95;;;11.80;99.90;;;;;;5031177;28;20030;-53
2023/12/28 09:53:36;;;;;;;4.13;2.05;;;12.00;99.90;;;;;;5030871;28;20076;-53
2023/12/28 09:56:03;;;;;;;3.78;2.30;;;12.10;99.90;;;;;;5031270;28;20100;-52
2023/12/28 09:58:31;;;;;;;2.45;2.25;;;12.50;99.90;;;;;;5030545;28;20390;-55
2023/12/28 10:00:57;;;;;;;2.13;2.00;;;12.70;99.90;;;;;;5030828;28;20026;-53
2023/12/28 10:03:22;;;;;;;1.88;1.77;;;13.00;99.90;;;;;;5031147;28;20040;-52
2023/12/28 10:05:48;;;;;;;2.85;2.03;;;13.20;99.90;;;;;;5031301;28;20084;-51
2023/12/28 10:08:16;;;;;;;3.22;2.10;;;13.20;99.90;;;;;;5031211;28;20040;-49
2023/12/28 10:10:43;;;;;;;2.10;1.85;;;12.80;99.90;;;;;;5031314;28;20048;-49
2023/12/28 10:13:10;;;;;;;2.30;2.08;;;12.40;99.90;;;;;;5034313;28;20079;-47
2023/12/28 10:15:36;;;;;;;2.33;1.90;;;12.10;99.90;;;;;;5034451;28;20075;-47
2023/12/28 10:18:02;;;;;;;2.40;2.30;;;12.10;99.90;;;;;;5034843;28;20026;-49
2023/12/28 10:20:28;;;;;;;3.58;2.28;;;12.00;99.90;;;;;;5034807;28;20021;-48
2023/12/28 10:22:53;;;;;;;3.72;2.00;;;11.80;99.90;;;;;;5034474;28;20512;-49
2023/12/28 10:25:19;;;;;;;7.10;2.50;;;11.60;99.90;;;;;;5034541;28;20034;-48
2023/12/28 10:27:44;;;;;;;2.67;2.08;;;11.40;99.90;;;;;;5034253;28;20046;-47
2023/12/28 10:30:10;;;;;;;5.57;3.25;;;11.40;99.90;;;;;;5034767;28;20033;-48
2023/12/28 10:32:42;;;;;;;4.88;2.55;;;11.50;99.90;;;;;;5034292;28;20382;-51
2023/12/28 10:35:08;;;;;;;3.30;2.10;;;11.30;99.90;;;;;;5034114;28;20026;-47
2023/12/28 10:37:35;;;;;;;4.10;2.55;;;11.20;99.90;;;;;;5034236;28;20030;-47
2023/12/28 10:40:06;;;;;;;3.60;2.58;;;11.20;99.90;;;;;;5034677;28;20088;-48
2023/12/28 10:42:33;;;;;;;2.67;2.47;;;11.10;99.90;;;;;;5035734;28;20052;-47
2023/12/28 10:45:05;;;;;;;3.53;2.25;;;11.00;99.90;;;;;;5034264;28;20036;-50
2023/12/28 10:47:34;;;;;;;5.97;2.30;;;11.00;99.90;;;;;;5034358;28;20125;-52
2023/12/28 10:50:05;;;;;;;5.20;2.28;;;11.20;99.90;;;;;;5034534;28;20030;-48
2023/12/28 10:52:32;;;;;;;5.65;2.20;;;11.60;99.90;;;;;;5034000;28;20319;-48
2023/12/28 10:55:19;;;;;;;4.15;2.25;;;12.10;99.90;;;;;;5033900;28;20036;-47
2023/12/28 10:58:03;;;;;;;3.72;2.25;;;12.40;99.90;;;;;;5034839;28;20025;-51
2023/12/28 11:00:33;;;;;;;5.32;2.42;;;12.40;99.90;;;;;;5042975;28;20017;-48
2023/12/28 11:03:03;;;;;;;4.18;2.58;;;12.10;99.90;;;;;;5033754;28;20042;-56
2023/12/28 11:05:30;;;;;;;2.60;2.40;;;11.80;99.90;;;;;;5033628;28;20025;-51
2023/12/28 11:07:58;;;;;;;3.95;2.70;;;11.30;99.90;;;;;;5033465;28;20029;-49
2023/12/28 11:10:24;;;;;;;5.82;2.50;;;11.20;99.90;;;;;;5033974;28;20030;-57
2023/12/28 11:12:54;;;;;;;5.70;2.40;;;11.20;99.90;;;;;;5033543;28;20065;-46
2023/12/28 11:15:20;;;;;;;3.78;2.20;;;11.10;99.90;;;;;;5033891;28;20032;-47
2023/12/28 11:17:46;;;;;;;2.85;2.40;;;11.20;99.90;;;;;;5027781;28;20083;-49
2023/12/28 11:20:12;;;;;;;5.70;2.75;;;11.20;99.90;;;;;;5026721;28;20388;-50
2023/12/28 11:22:39;;;;;;;4.75;2.53;;;11.20;99.90;;;;;;5026407;28;20510;-52
2023/12/28 11:25:05;;;;;;;3.15;2.70;;;11.30;99.90;;;;;;5013419;28;20477;-55
2023/12/28 11:27:34;;;;;;;7.03;2.38;;;11.40;99.90;;;;;;5024287;28;20028;-57
2023/12/28 11:30:00;;;;;;;6.22;2.65;;;11.30;99.90;;;;;;5032851;28;20034;-53
2023/12/28 11:32:26;;;;;;;4.05;2.22;;;11.20;99.90;;;;;;5032315;28;20021;-56
2023/12/28 11:35:00;;;;;;;4.25;2.75;;;11.20;99.90;;;;;;5032350;28;20029;-52
2023/12/28 11:37:27;;;;;;;4.97;2.58;;;11.10;99.90;;;;;;5032968;28;20119;-49
2023/12/28 11:39:54;;;;;;;4.75;2.47;;;11.10;99.90;;;;;;5032428;28;20028;-51
2023/12/28 11:42:22;;;;;;;7.13;3.05;;;11.10;99.90;;;;;;5032022;28;20021;-49
2023/12/28 11:44:49;;;;;;;4.55;2.33;;;11.00;99.90;;;;;;5032429;28;20025;-50
2023/12/28 11:47:23;;;;;;;7.03;2.95;;;10.90;99.90;;;;;;5032372;28;20049;-51
2023/12/28 11:49:51;;;;;;;5.68;2.20;;;10.90;99.90;;;;;;5033363;28;20500;-51
2023/12/28 11:52:23;;;;;;;4.45;2.20;;;10.90;99.90;;;;;;5031922;28;20025;-50
2023/12/28 11:54:49;;;;;;;3.45;2.03;;;10.90;99.90;;;;;;5031760;28;20045;-52
2023/12/28 11:57:16;;;;;;;2.83;1.80;;;10.90;99.90;;;;;;5032578;28;20030;-59
2023/12/28 11:59:41;;;;;;;4.15;2.50;;;10.90;99.90;;;;;;5031669;28;20018;-53
2023/12/28 12:02:07;;;;;;;3.53;2.20;;;10.90;99.90;;;;;;5030917;28;20087;-52
2023/12/28 12:04:34;;;;;;;4.75;2.35;;;11.00;99.90;;;;;;5032769;28;20441;-54
2023/12/28 12:07:04;;;;;;;5.78;3.13;;;11.00;99.90;;;;;;5033245;28;20029;-51
2023/12/28 12:09:34;;;;;;;7.18;3.70;;;11.10;99.90;;;;;;5032965;28;20099;-49
2023/12/28 12:12:03;;;;;;;8.00;2.28;;;11.10;99.90;;;;;;5033523;28;20072;-47
2023/12/28 12:14:29;;;;;;;5.78;2.70;;;11.20;99.90;;;;;;5032223;28;20029;-43
2023/12/28 12:16:58;;;;;;;5.60;2.28;;;11.30;99.90;;;;;;5032811;28;20030;-46
2023/12/28 12:19:25;;;;;;;7.30;2.45;;;11.30;99.90;;;;;;5032929;28;20026;-48
2023/12/28 12:21:55;;;;;;;2.72;1.95;;;11.30;99.90;;;;;;5032495;28;20036;-45
2023/12/28 12:24:22;;;;;;;4.20;1.95;;;11.30;99.90;;;;;;5015251;28;20025;-52
2023/12/28 12:26:48;;;;;;;2.33;2.13;;;11.30;99.90;;;;;;5033491;28;20033;-46
2023/12/28 12:29:14;;;;;;;3.90;2.00;;;11.30;99.90;;;;;;5032460;28;20030;-45
2023/12/28 12:31:41;;;;;;;6.72;3.00;;;11.30;99.90;;;;;;5032325;28;20030;-47
2023/12/28 12:34:11;;;;;;;2.20;1.80;;;11.30;99.90;;;;;;5031880;28;20030;-48
2023/12/28 12:36:37;;;;;;;5.53;2.17;;;11.20;99.90;;;;;;5032105;28;20397;-47
2023/12/28 12:39:05;;;;;;;4.70;2.33;;;11.30;99.90;;;;;;5032422;28;20014;-51
2023/12/28 12:41:34;;;;;;;4.82;2.55;;;11.20;99.90;;;;;;5032175;28;20515;-47
2023/12/28 12:44:00;;;;;;;7.15;2.13;;;11.20;99.90;;;;;;5032162;28;20037;-49
2023/12/28 12:46:26;;;;;;;8.32;2.72;;;11.20;99.90;;;;;;5032395;28;20427;-48
2023/12/28 12:48:59;;;;;;;7.57;2.60;;;11.20;99.90;;;;;;5032645;28;20033;-48